Terminal Aerodrome Forecast
Issued by NWS Boston, MA

Home | Current Version | Previous Version | Text Only | Print | Product List | Glossary On
Versions: 1 2 3 4 5 6 7 8 9 10 11 12 13 14 15 16 17 18 19 20 21 22 23 24 25 26 27 28 29 30 31 32 33 34 35 36 37 38 39 40 41 42 43 44 45 46 47
293
FTUS41 KBOX 040535
TAFPVD
TAF
KPVD 040535Z 0406/0506 05006KT P6SM OVC050
     FM041500 06008KT P6SM VCSH OVC020
     FM042000 06010G19KT P6SM -RA OVC025
     FM042300 05011G23KT P6SM -RA OVC015=

USA.gov is the U.S. government's official web portal to all federal, state and local government web resources and services.